createdAt,value
2018-06-05T00:01:26.660Z,9.30
2018-06-05T00:03:55.284Z,9.60
2018-06-05T00:06:24.053Z,9.77
2018-06-05T00:08:53.094Z,9.07
2018-06-05T00:11:21.916Z,8.77
2018-06-05T00:13:50.512Z,9.07
2018-06-05T00:19:16.718Z,8.80
2018-06-05T00:21:45.496Z,8.93
2018-06-05T00:24:14.341Z,9.20
2018-06-05T00:26:43.161Z,8.83
2018-06-05T00:29:11.925Z,9.23
2018-06-05T00:31:41.054Z,10.23
2018-06-05T00:34:09.810Z,8.80
2018-06-05T00:36:38.681Z,9.33
2018-06-05T00:39:07.989Z,8.53
2018-06-05T00:41:36.765Z,8.80
2018-06-05T00:44:05.525Z,8.93
2018-06-05T00:46:34.330Z,9.40
2018-06-05T00:49:03.118Z,8.53
2018-06-05T00:51:43.341Z,7.97
2018-06-05T00:54:12.159Z,7.40
2018-06-05T00:56:41.021Z,8.67
2018-06-05T00:59:09.909Z,8.10
2018-06-05T01:01:38.742Z,7.90
2018-06-05T01:04:07.525Z,7.90
2018-06-05T01:06:36.332Z,7.43
2018-06-05T01:09:06.360Z,6.90
2018-06-05T01:11:35.081Z,7.03
2018-06-05T01:14:04.022Z,8.40
2018-06-05T01:16:32.818Z,6.40
2018-06-05T01:19:01.392Z,8.20
2018-06-05T01:21:29.992Z,7.70
2018-06-05T01:23:58.810Z,6.97
2018-06-05T01:26:27.632Z,6.80
2018-06-05T01:28:56.425Z,7.10
2018-06-05T01:31:25.198Z,6.67
2018-06-05T01:33:53.941Z,6.63
2018-06-05T01:36:22.709Z,6.10
2018-06-05T01:38:51.701Z,6.93
2018-06-05T01:41:20.694Z,6.53
2018-06-05T01:43:49.473Z,6.30
2018-06-05T01:46:18.265Z,6.43
2018-06-05T01:48:47.013Z,5.73
2018-06-05T01:51:15.782Z,6.57
2018-06-05T01:53:44.565Z,5.87
2018-06-05T01:56:13.375Z,5.27
2018-06-05T01:58:41.972Z,5.60
2018-06-05T02:01:10.673Z,6.27
2018-06-05T02:03:39.442Z,6.83
2018-06-05T02:06:08.225Z,6.23
2018-06-05T02:08:37.114Z,6.77
2018-06-05T02:11:05.889Z,5.77
2018-06-05T02:13:34.657Z,5.80
2018-06-05T02:16:03.441Z,6.30
2018-06-05T02:18:32.077Z,5.30
2018-06-05T02:21:00.753Z,5.43
2018-06-05T02:23:29.565Z,6.37
2018-06-05T02:25:58.341Z,5.30
2018-06-05T02:28:27.157Z,6.67
2018-06-05T02:30:55.999Z,6.13
2018-06-05T02:33:24.797Z,5.37
2018-06-05T02:35:53.595Z,5.87
2018-06-05T02:38:22.346Z,6.00
2018-06-05T02:40:53.518Z,5.80
2018-06-05T02:43:22.338Z,6.23
2018-06-05T02:45:51.533Z,6.10
2018-06-05T02:48:20.312Z,5.87
2018-06-05T02:50:49.290Z,6.30
2018-06-05T02:53:18.158Z,6.10
2018-06-05T02:55:47.010Z,7.13
2018-06-05T02:58:15.778Z,6.23
2018-06-05T03:00:44.565Z,6.40
2018-06-05T03:03:13.335Z,6.57
2018-06-05T03:05:42.138Z,6.57
2018-06-05T03:08:10.965Z,6.70
2018-06-05T03:10:39.862Z,6.53
2018-06-05T03:13:08.394Z,7.40
2018-06-05T03:15:37.081Z,6.37
2018-06-05T03:18:05.842Z,6.97
2018-06-05T03:20:34.620Z,7.00
2018-06-05T03:23:03.260Z,7.97
2018-06-05T03:25:32.000Z,7.80
2018-06-05T03:28:00.762Z,6.20
2018-06-05T03:30:30.620Z,7.13
2018-06-05T03:32:59.473Z,7.07
2018-06-05T03:35:28.353Z,6.67
2018-06-05T03:37:57.142Z,5.80
2018-06-05T03:40:26.000Z,6.67
2018-06-05T03:42:54.797Z,6.30
2018-06-05T03:45:23.566Z,6.73
2018-06-05T03:47:52.353Z,7.50
2018-06-05T03:50:21.149Z,7.00
2018-06-05T03:52:49.937Z,7.00
2018-06-05T03:55:18.717Z,6.50
2018-06-05T03:57:47.628Z,6.03
2018-06-05T04:00:16.438Z,6.70
2018-06-05T04:02:45.209Z,6.03
2018-06-05T04:05:14.138Z,7.10
2018-06-05T04:07:42.724Z,6.70
2018-06-05T04:10:11.386Z,5.80
2018-06-05T04:12:40.158Z,6.27
2018-06-05T04:15:08.946Z,6.37
2018-06-05T04:17:37.837Z,5.70
2018-06-05T04:20:06.645Z,6.50
2018-06-05T04:22:35.412Z,6.67
2018-06-05T04:25:04.229Z,5.57
2018-06-05T04:27:33.123Z,6.73
2018-06-05T04:30:02.010Z,6.00
2018-06-05T04:32:30.781Z,5.67
2018-06-05T04:34:59.595Z,6.13
2018-06-05T04:37:28.192Z,5.67
2018-06-05T04:39:56.853Z,4.80
2018-06-05T04:42:25.677Z,5.70
2018-06-05T04:44:54.598Z,5.73
2018-06-05T04:47:23.386Z,5.13
2018-06-05T04:49:52.353Z,5.60
2018-06-05T04:52:21.125Z,6.00
2018-06-05T04:54:49.915Z,5.17
2018-06-05T04:57:18.696Z,5.10
2018-06-05T04:59:47.449Z,5.47
2018-06-05T05:02:16.236Z,5.20
2018-06-05T05:04:44.996Z,4.17
2018-06-05T05:07:13.754Z,5.00
2018-06-05T05:09:42.529Z,5.17
2018-06-05T05:12:11.326Z,4.70
2018-06-05T05:14:40.077Z,6.00
2018-06-05T05:17:08.944Z,4.87
2018-06-05T05:19:37.690Z,4.77
2018-06-05T05:22:06.297Z,5.10
2018-06-05T05:24:34.966Z,4.80
2018-06-05T05:27:03.745Z,4.03
2018-06-05T05:29:32.509Z,4.43
2018-06-05T05:32:01.281Z,4.77
2018-06-05T05:34:30.029Z,5.30
2018-06-05T05:36:58.802Z,5.07
2018-06-05T05:39:27.553Z,5.13
2018-06-05T05:41:56.372Z,4.20
2018-06-05T05:44:25.106Z,4.53
2018-06-05T05:46:53.659Z,4.40
2018-06-05T05:49:22.297Z,5.77
2018-06-05T05:51:51.121Z,4.50
2018-06-05T05:54:19.705Z,3.90
2018-06-05T05:56:48.199Z,4.73
2018-06-05T05:59:16.870Z,4.50
2018-06-05T06:01:45.436Z,4.03
2018-06-05T06:04:14.110Z,3.80
2018-06-05T06:06:42.926Z,3.97
2018-06-05T06:09:11.713Z,4.10
2018-06-05T06:11:40.481Z,3.43
2018-06-05T06:14:09.292Z,4.63
2018-06-05T06:16:38.081Z,3.73
2018-06-05T06:19:06.841Z,4.27
2018-06-05T06:21:35.673Z,4.40
2018-06-05T06:24:04.231Z,4.10
2018-06-05T06:26:32.930Z,4.43
2018-06-05T06:29:01.697Z,3.47
2018-06-05T06:31:30.482Z,4.33
2018-06-05T06:33:59.245Z,4.03
2018-06-05T06:36:28.005Z,4.10
2018-06-05T06:38:56.769Z,3.87
2018-06-05T06:41:25.562Z,4.63
2018-06-05T06:43:54.321Z,3.83
2018-06-05T06:46:23.195Z,3.43
2018-06-05T06:48:52.016Z,3.93
2018-06-05T06:51:20.478Z,3.97
2018-06-05T06:53:49.201Z,4.50
2018-06-05T06:56:17.759Z,3.40
2018-06-05T06:58:46.436Z,3.77
2018-06-05T07:01:15.218Z,4.00
2018-06-05T07:03:44.006Z,5.10
2018-06-05T07:06:12.794Z,3.83
2018-06-05T07:08:41.580Z,4.33
2018-06-05T07:11:10.355Z,4.03
2018-06-05T07:13:39.141Z,3.70
2018-06-05T07:16:07.901Z,5.10
2018-06-05T07:18:36.682Z,4.80
2018-06-05T07:21:05.256Z,4.40
2018-06-05T07:23:33.957Z,3.90
2018-06-05T07:26:02.533Z,5.00
2018-06-05T07:28:31.213Z,4.27
2018-06-05T07:30:59.997Z,4.63
2018-06-05T07:33:28.790Z,4.57
2018-06-05T07:35:57.550Z,4.43
2018-06-05T07:38:26.329Z,4.43
2018-06-05T07:40:55.084Z,4.50
2018-06-05T07:43:23.845Z,4.53
2018-06-05T07:45:52.369Z,4.73
2018-06-05T07:48:21.103Z,4.13
2018-06-05T07:50:50.001Z,4.57
2018-06-05T07:53:18.769Z,4.23
2018-06-05T07:55:47.534Z,4.63
2018-06-05T07:58:16.295Z,4.50
2018-06-05T08:00:45.046Z,4.13
2018-06-05T08:03:13.909Z,4.13
2018-06-05T08:05:42.861Z,4.60
2018-06-05T08:08:11.452Z,4.70
2018-06-05T08:10:40.105Z,3.90
2018-06-05T08:13:08.872Z,4.10
2018-06-05T08:15:37.785Z,5.00
2018-06-05T08:18:06.565Z,3.90
2018-06-05T08:20:35.319Z,4.70
2018-06-05T08:23:04.118Z,5.13
2018-06-05T08:25:32.941Z,4.17
2018-06-05T08:28:01.705Z,4.37
2018-06-05T08:30:30.488Z,5.00
2018-06-05T08:32:59.275Z,5.23
2018-06-05T08:35:28.045Z,6.30
2018-06-05T08:37:56.842Z,4.60
2018-06-05T08:40:25.568Z,4.57
2018-06-05T08:42:54.329Z,4.40
2018-06-05T08:45:23.106Z,4.07
2018-06-05T08:47:51.857Z,5.40
2018-06-05T08:50:20.622Z,3.93
2018-06-05T08:52:49.388Z,3.83
2018-06-05T08:55:18.149Z,4.97
2018-06-05T08:57:46.953Z,4.07
2018-06-05T09:00:15.724Z,4.33
2018-06-05T09:02:44.477Z,4.67
2018-06-05T09:05:13.039Z,5.23
2018-06-05T09:07:41.711Z,3.70
2018-06-05T09:10:10.522Z,4.67
2018-06-05T09:12:39.401Z,4.37
2018-06-05T09:15:08.201Z,4.17
2018-06-05T09:17:36.969Z,5.57
2018-06-05T09:20:05.746Z,4.20
2018-06-05T09:22:34.529Z,4.80
2018-06-05T09:25:03.291Z,4.40
2018-06-05T09:27:32.046Z,4.27
2018-06-05T09:30:00.809Z,4.23
2018-06-05T09:32:29.725Z,4.00
2018-06-05T09:34:58.501Z,4.53
2018-06-05T09:37:27.276Z,3.47
2018-06-05T09:39:56.605Z,4.10
2018-06-05T09:42:25.393Z,4.73
2018-06-05T09:44:54.080Z,5.17
2018-06-05T09:47:22.769Z,5.60
2018-06-05T09:49:51.449Z,6.67
2018-06-05T09:52:20.296Z,6.43
2018-06-05T09:54:49.052Z,6.83
2018-06-05T09:57:17.814Z,5.60
2018-06-05T09:59:46.576Z,4.43
2018-06-05T10:02:15.380Z,4.70
2018-06-05T10:04:44.141Z,4.70
2018-06-05T10:07:12.913Z,4.77
2018-06-05T10:09:41.672Z,4.33
2018-06-05T10:12:10.442Z,4.97
2018-06-05T10:14:39.222Z,3.57
2018-06-05T10:17:07.989Z,4.40
2018-06-05T10:19:36.765Z,4.53
2018-06-05T10:22:05.549Z,4.47
2018-06-05T10:24:34.312Z,4.57
2018-06-05T10:27:03.070Z,4.20
2018-06-05T10:29:31.839Z,4.73
2018-06-05T10:32:00.597Z,4.30
2018-06-05T10:34:29.365Z,4.23
2018-06-05T10:36:58.122Z,4.47
2018-06-05T10:39:26.893Z,4.17
2018-06-05T10:41:55.752Z,4.87
2018-06-05T10:44:25.614Z,4.50
2018-06-05T10:46:54.377Z,4.80
2018-06-05T10:49:23.321Z,4.00
2018-06-05T10:51:52.106Z,4.30
2018-06-05T10:54:20.877Z,5.00
2018-06-05T10:56:49.420Z,4.37
2018-06-05T10:59:18.133Z,5.20
2018-06-05T11:01:46.885Z,3.93
2018-06-05T11:04:15.668Z,3.80
2018-06-05T11:06:44.398Z,3.90
2018-06-05T11:09:13.431Z,4.03
2018-06-05T11:11:42.257Z,5.20
2018-06-05T11:14:11.045Z,5.00
2018-06-05T11:16:40.852Z,4.80
2018-06-05T11:19:09.674Z,5.27
2018-06-05T11:21:38.553Z,4.47
2018-06-05T11:24:07.317Z,4.03
2018-06-05T11:26:36.090Z,4.30
2018-06-05T11:29:05.209Z,4.07
2018-06-05T11:31:33.988Z,3.97
2018-06-05T11:34:02.737Z,4.00
2018-06-05T11:36:31.519Z,4.43
2018-06-05T11:39:00.053Z,5.00
2018-06-05T11:41:28.733Z,3.63
2018-06-05T11:43:57.476Z,4.57
2018-06-05T11:46:26.281Z,3.53
2018-06-05T11:48:55.046Z,4.40
2018-06-05T11:51:23.692Z,4.47
2018-06-05T11:53:52.372Z,4.97
2018-06-05T11:56:21.136Z,4.50
2018-06-05T11:58:49.889Z,4.77
2018-06-05T12:01:18.696Z,4.17
2018-06-05T12:03:47.273Z,4.20
2018-06-05T12:06:15.954Z,4.87
2018-06-05T12:08:44.745Z,4.93
2018-06-05T12:11:13.533Z,5.70
2018-06-05T12:13:42.068Z,4.63
2018-06-05T12:16:10.749Z,4.80
2018-06-05T12:18:39.500Z,4.90
2018-06-05T12:21:08.293Z,5.03
2018-06-05T12:23:37.057Z,6.27
2018-06-05T12:26:05.853Z,5.13
2018-06-05T12:28:34.760Z,4.60
2018-06-05T12:31:05.690Z,4.80
2018-06-05T12:33:34.416Z,4.80
2018-06-05T12:36:03.177Z,4.47
2018-06-05T12:38:31.942Z,4.77
2018-06-05T12:41:00.501Z,4.67
2018-06-05T12:43:29.165Z,5.27
2018-06-05T12:45:57.992Z,5.57
2018-06-05T12:48:27.148Z,4.93
2018-06-05T12:50:56.046Z,5.27
2018-06-05T12:53:24.794Z,5.13
2018-06-05T12:55:53.403Z,5.23
2018-06-05T12:58:22.434Z,5.17
2018-06-05T13:00:51.253Z,5.07
2018-06-05T13:03:19.819Z,5.70
2018-06-05T13:05:48.328Z,5.63
2018-06-05T13:08:16.998Z,4.60
2018-06-05T13:10:45.776Z,4.83
2018-06-05T13:13:14.538Z,5.20
2018-06-05T13:15:43.317Z,5.63
2018-06-05T13:18:12.105Z,5.10
2018-06-05T13:20:40.893Z,4.43
2018-06-05T13:23:09.699Z,5.27
2018-06-05T13:25:38.448Z,4.63
2018-06-05T13:28:07.213Z,4.93
2018-06-05T13:30:36.006Z,5.20
2018-06-05T13:33:04.769Z,4.77
2018-06-05T13:35:33.376Z,5.27
2018-06-05T13:38:02.053Z,4.87
2018-06-05T13:40:30.829Z,5.03
2018-06-05T13:42:59.605Z,5.10
2018-06-05T13:45:28.370Z,5.10
2018-06-05T13:47:57.206Z,4.97
2018-06-05T13:50:25.966Z,4.87
2018-06-05T13:52:54.774Z,4.93
2018-06-05T13:55:23.533Z,4.97
2018-06-05T13:57:52.299Z,5.07
2018-06-05T14:00:21.049Z,5.00
2018-06-05T14:02:49.822Z,5.03
2018-06-05T14:05:18.577Z,5.43
2018-06-05T14:07:47.360Z,5.17
2018-06-05T14:10:16.113Z,4.97
2018-06-05T14:12:44.687Z,4.83
2018-06-05T14:15:13.357Z,5.47
2018-06-05T14:17:42.126Z,5.13
2018-06-05T14:20:10.894Z,4.70
2018-06-05T14:22:39.788Z,5.10
2018-06-05T14:25:08.548Z,4.77
2018-06-05T14:27:37.272Z,5.43
2018-06-05T14:30:05.961Z,4.23
2018-06-05T14:32:34.721Z,5.53
2018-06-05T14:35:03.477Z,5.30
2018-06-05T14:37:32.072Z,5.43
2018-06-05T14:40:00.734Z,5.17
2018-06-05T14:42:29.509Z,6.13
2018-06-05T14:44:58.352Z,4.90
2018-06-05T14:47:27.041Z,4.50
2018-06-05T14:49:55.789Z,5.40
2018-06-05T14:52:24.561Z,5.07
2018-06-05T14:54:53.325Z,4.37
2018-06-05T14:57:22.709Z,5.40
2018-06-05T14:59:51.565Z,5.47
2018-06-05T15:02:20.329Z,4.83
2018-06-05T15:04:49.093Z,4.70
2018-06-05T15:07:17.877Z,5.37
2018-06-05T15:09:46.766Z,5.37
2018-06-05T15:12:15.573Z,5.53
2018-06-05T15:14:44.493Z,4.83
2018-06-05T15:17:13.246Z,5.90
2018-06-05T15:19:41.993Z,4.97
2018-06-05T15:22:10.887Z,5.10
2018-06-05T15:24:39.681Z,5.40
2018-06-05T15:27:08.261Z,5.40
2018-06-05T15:29:37.148Z,5.60
2018-06-05T15:32:06.241Z,5.03
2018-06-05T15:34:34.792Z,5.30
2018-06-05T15:37:03.478Z,5.37
2018-06-05T15:39:32.401Z,5.03
2018-06-05T15:42:00.980Z,5.37
2018-06-05T15:44:29.669Z,5.60
2018-06-05T15:46:58.248Z,4.93
2018-06-05T15:49:26.721Z,5.20
2018-06-05T15:51:55.212Z,5.50
2018-06-05T15:54:23.895Z,5.33
2018-06-05T15:56:52.677Z,5.80
2018-06-05T15:59:21.466Z,4.60
2018-06-05T16:01:50.233Z,5.00
2018-06-05T16:04:19.017Z,5.07
2018-06-05T16:06:47.937Z,5.17
2018-06-05T16:09:16.930Z,5.20
2018-06-05T16:11:45.713Z,5.03
2018-06-05T16:14:14.669Z,5.13
2018-06-05T16:16:43.451Z,5.10
2018-06-05T16:19:12.222Z,5.77
2018-06-05T16:21:41.002Z,4.90
2018-06-05T16:24:09.784Z,5.73
2018-06-05T16:26:38.362Z,6.13
2018-06-05T16:29:07.033Z,5.63
2018-06-05T16:31:35.797Z,5.53
2018-06-05T16:34:04.565Z,6.37
2018-06-05T16:36:33.314Z,5.87
2018-06-05T16:39:02.085Z,5.70
2018-06-05T16:41:30.866Z,5.83
2018-06-05T16:43:59.636Z,6.40
2018-06-05T16:46:28.790Z,6.97
2018-06-05T16:48:57.573Z,6.23
2018-06-05T16:51:26.361Z,6.47
2018-06-05T16:53:55.150Z,6.50
2018-06-05T16:56:23.905Z,7.77
2018-06-05T16:58:52.689Z,8.10
2018-06-05T17:01:21.502Z,8.03
2018-06-05T17:03:50.096Z,8.13
2018-06-05T17:06:18.786Z,7.53
2018-06-05T17:08:47.575Z,8.93
2018-06-05T17:11:16.620Z,7.97
2018-06-05T17:13:45.460Z,8.50
2018-06-05T17:16:15.148Z,8.87
2018-06-05T17:18:44.042Z,8.30
2018-06-05T17:21:12.810Z,8.57
2018-06-05T17:23:41.754Z,9.00
2018-06-05T17:26:10.704Z,9.37
2018-06-05T17:28:39.466Z,9.77
2018-06-05T17:31:08.253Z,8.90
2018-06-05T17:33:37.079Z,8.27
2018-06-05T17:36:05.672Z,8.57
2018-06-05T17:38:34.353Z,8.87
2018-06-05T17:41:02.904Z,9.13
2018-06-05T17:43:31.586Z,8.57
2018-06-05T17:46:00.428Z,9.43
2018-06-05T17:48:29.302Z,9.10
2018-06-05T17:50:58.164Z,9.23
2018-06-05T17:53:27.029Z,8.37
2018-06-05T17:55:55.800Z,7.57
2018-06-05T17:58:24.558Z,9.47
2018-06-05T18:00:53.140Z,9.27
2018-06-05T18:03:21.633Z,8.10
2018-06-05T18:05:50.320Z,7.93
2018-06-05T18:08:19.070Z,8.30
2018-06-05T18:10:47.881Z,7.63
2018-06-05T18:13:16.645Z,7.87
2018-06-05T18:15:45.412Z,7.80
2018-06-05T18:18:14.197Z,6.53
2018-06-05T18:20:42.959Z,6.30
2018-06-05T18:23:11.725Z,6.90
2018-06-05T18:25:40.537Z,6.13
2018-06-05T18:28:09.317Z,6.70
2018-06-05T18:30:38.297Z,6.40
2018-06-05T18:33:07.070Z,6.00
2018-06-05T18:35:35.865Z,5.60
2018-06-05T18:38:04.638Z,5.60
2018-06-05T18:40:33.400Z,5.07
2018-06-05T18:43:02.147Z,5.30
2018-06-05T18:45:30.705Z,5.30
2018-06-05T18:47:59.369Z,4.87
2018-06-05T18:50:28.117Z,5.77
2018-06-05T18:52:56.644Z,5.37
2018-06-05T18:55:26.978Z,6.37
2018-06-05T18:57:55.740Z,5.57
2018-06-05T19:00:24.561Z,6.00
2018-06-05T19:02:53.432Z,5.37
2018-06-05T19:05:22.222Z,5.70
2018-06-05T19:07:50.958Z,5.77
2018-06-05T19:10:19.512Z,5.60
2018-06-05T19:12:48.169Z,4.43
2018-06-05T19:15:16.921Z,4.27
2018-06-05T19:17:45.492Z,4.47
2018-06-05T19:20:13.972Z,4.57
2018-06-05T19:22:42.625Z,4.13
2018-06-05T19:25:11.397Z,4.80
2018-06-05T19:27:40.146Z,4.00
2018-06-05T19:30:08.732Z,4.37
2018-06-05T19:32:37.397Z,4.30
2018-06-05T19:35:06.165Z,4.00
2018-06-05T19:37:34.923Z,4.30
2018-06-05T19:40:03.701Z,4.30
2018-06-05T19:42:32.452Z,4.20
2018-06-05T19:45:01.202Z,4.73
2018-06-05T19:47:30.042Z,4.30
2018-06-05T19:49:59.826Z,4.10
2018-06-05T19:52:28.837Z,4.37
2018-06-05T19:54:57.598Z,4.10
2018-06-05T19:57:26.401Z,3.80
2018-06-05T19:59:55.167Z,4.00
2018-06-05T20:02:23.954Z,3.93
2018-06-05T20:04:52.725Z,3.90
2018-06-05T20:07:21.491Z,3.20
2018-06-05T20:09:50.253Z,3.53
2018-06-05T20:12:19.038Z,2.93
2018-06-05T20:14:47.733Z,3.93
2018-06-05T20:17:16.488Z,3.93
2018-06-05T20:19:45.255Z,8.03
2018-06-05T20:22:14.588Z,7.90
2018-06-05T20:24:49.185Z,6.10
2018-06-05T20:27:18.657Z,5.47
2018-06-05T20:29:47.421Z,3.90
2018-06-05T20:32:16.367Z,4.03
2018-06-05T20:34:45.329Z,9.23
2018-06-05T20:37:14.118Z,5.90
2018-06-05T20:39:42.862Z,3.60
2018-06-05T20:42:11.634Z,2.83
2018-06-05T20:44:40.383Z,2.70
2018-06-05T20:47:08.969Z,2.33
2018-06-05T20:49:37.685Z,2.27
2018-06-05T20:52:06.476Z,2.13
2018-06-05T20:54:35.197Z,2.30
2018-06-05T20:57:03.953Z,2.00
2018-06-05T20:59:32.702Z,1.97
2018-06-05T21:02:01.301Z,1.90
2018-06-05T21:04:29.961Z,2.40
2018-06-05T21:06:58.512Z,2.00
2018-06-05T21:09:27.197Z,1.93
2018-06-05T21:11:55.977Z,2.00
2018-06-05T21:14:24.727Z,1.70
2018-06-05T21:16:53.515Z,2.03
2018-06-05T21:19:22.248Z,1.60
2018-06-05T21:21:51.010Z,1.80
2018-06-05T21:24:19.749Z,1.70
2018-06-05T21:26:48.529Z,1.47
2018-06-05T21:29:17.282Z,1.40
2018-06-05T21:31:46.102Z,1.60
2018-06-05T21:34:14.877Z,1.63
2018-06-05T21:36:43.657Z,1.50
2018-06-05T21:39:12.393Z,1.40
2018-06-05T21:41:40.950Z,1.30
2018-06-05T21:44:09.600Z,1.67
2018-06-05T21:46:38.592Z,1.30
2018-06-05T21:49:07.349Z,1.37
2018-06-05T21:51:36.111Z,1.50
2018-06-05T21:54:04.977Z,1.30
2018-06-05T21:56:33.725Z,1.30
2018-06-05T21:59:02.490Z,1.20
2018-06-05T22:01:31.329Z,1.43
2018-06-05T22:04:00.069Z,1.50
2018-06-05T22:06:28.660Z,1.20
2018-06-05T22:08:57.334Z,1.93
2018-06-05T22:11:26.093Z,1.43
2018-06-05T22:13:54.881Z,1.40
2018-06-05T22:16:23.653Z,1.63
2018-06-05T22:18:52.401Z,1.30
2018-06-05T22:21:20.997Z,1.37
2018-06-05T22:23:49.654Z,1.43
2018-06-05T22:26:18.392Z,1.40
2018-06-05T22:28:47.144Z,1.80
2018-06-05T22:31:15.677Z,1.40
2018-06-05T22:33:44.349Z,1.70
2018-06-05T22:36:13.089Z,1.50
2018-06-05T22:38:41.845Z,1.40
2018-06-05T22:41:10.585Z,1.50
2018-06-05T22:43:39.353Z,1.33
2018-06-05T22:46:08.109Z,1.37
2018-06-05T22:48:36.877Z,1.27
2018-06-05T22:51:05.603Z,1.50
2018-06-05T22:53:34.349Z,1.60
2018-06-05T22:56:03.089Z,1.50
2018-06-05T22:58:31.859Z,1.43
2018-06-05T23:01:00.593Z,1.60
2018-06-05T23:03:29.356Z,1.50
2018-06-05T23:05:58.106Z,1.40
2018-06-05T23:08:26.911Z,1.90
2018-06-05T23:10:55.669Z,1.47
2018-06-05T23:13:24.429Z,1.50
2018-06-05T23:15:53.194Z,1.63
2018-06-05T23:18:22.010Z,1.80
2018-06-05T23:20:50.769Z,1.40
2018-06-05T23:23:19.539Z,1.40
2018-06-05T23:25:48.321Z,1.60
2018-06-05T23:28:17.087Z,1.70
2018-06-05T23:30:45.934Z,1.70
2018-06-05T23:33:14.586Z,1.57
2018-06-05T23:35:43.245Z,1.80
2018-06-05T23:38:12.003Z,1.50
2018-06-05T23:40:40.745Z,1.53
2018-06-05T23:43:09.538Z,1.53
2018-06-05T23:45:38.293Z,1.90
2018-06-05T23:48:07.061Z,1.73
2018-06-05T23:50:35.817Z,1.43
2018-06-05T23:53:04.678Z,1.80
2018-06-05T23:55:33.409Z,1.60
2018-06-05T23:58:02.164Z,2.00
